sensor_id;sensor_type;location;lat;lon;timestamp;P1;durP1;ratioP1;P2;durP2;ratioP2
68647;SDS011;55632;51.962;16.116;2022-08-19T00:03:21;13.88;;;9.05;;
68647;SDS011;55632;51.962;16.116;2022-08-19T00:08:25;11.73;;;9.25;;
68647;SDS011;55632;51.962;16.116;2022-08-19T00:13:26;11.80;;;8.82;;
68647;SDS011;55632;51.962;16.116;2022-08-19T00:18:29;11.52;;;9.00;;
68647;SDS011;55632;51.962;16.116;2022-08-19T00:23:29;12.32;;;8.82;;
68647;SDS011;55632;51.962;16.116;2022-08-19T00:28:34;20.27;;;10.60;;
68647;SDS011;55632;51.962;16.116;2022-08-19T00:33:36;12.20;;;9.02;;
68647;SDS011;55632;51.962;16.116;2022-08-19T00:38:37;15.80;;;9.75;;
68647;SDS011;55632;51.962;16.116;2022-08-19T00:43:50;11.43;;;8.27;;
68647;SDS011;55632;51.962;16.116;2022-08-19T00:49:04;15.65;;;8.88;;
68647;SDS011;55632;51.962;16.116;2022-08-19T00:54:10;17.48;;;10.60;;
68647;SDS011;55632;51.962;16.116;2022-08-19T00:59:11;12.15;;;9.80;;
68647;SDS011;55632;51.962;16.116;2022-08-19T01:04:21;15.25;;;10.40;;
68647;SDS011;55632;51.962;16.116;2022-08-19T01:09:24;12.23;;;10.00;;
68647;SDS011;55632;51.962;16.116;2022-08-19T01:14:29;12.43;;;10.15;;
68647;SDS011;55632;51.962;16.116;2022-08-19T01:19:32;11.10;;;9.40;;
68647;SDS011;55632;51.962;16.116;2022-08-19T01:24:37;20.60;;;10.07;;
68647;SDS011;55632;51.962;16.116;2022-08-19T01:29:39;11.13;;;10.02;;
68647;SDS011;55632;51.962;16.116;2022-08-19T01:34:41;16.40;;;10.55;;
68647;SDS011;55632;51.962;16.116;2022-08-19T01:39:47;12.57;;;10.00;;
68647;SDS011;55632;51.962;16.116;2022-08-19T01:44:50;15.48;;;11.02;;
68647;SDS011;55632;51.962;16.116;2022-08-19T01:49:55;16.77;;;10.48;;
68647;SDS011;55632;51.962;16.116;2022-08-19T02:00:14;14.10;;;10.77;;
68647;SDS011;55632;51.962;16.116;2022-08-19T02:05:21;14.55;;;9.55;;
68647;SDS011;55632;51.962;16.116;2022-08-19T02:10:22;12.27;;;9.32;;
68647;SDS011;55632;51.962;16.116;2022-08-19T02:15:23;13.25;;;9.95;;
68647;SDS011;55632;51.962;16.116;2022-08-19T02:20:25;12.82;;;10.82;;
68647;SDS011;55632;51.962;16.116;2022-08-19T02:25:26;13.43;;;11.38;;
68647;SDS011;55632;51.962;16.116;2022-08-19T02:30:27;15.75;;;12.63;;
68647;SDS011;55632;51.962;16.116;2022-08-19T02:35:28;13.95;;;12.27;;
68647;SDS011;55632;51.962;16.116;2022-08-19T02:40:30;16.75;;;12.48;;
68647;SDS011;55632;51.962;16.116;2022-08-19T02:45:35;14.57;;;11.93;;
68647;SDS011;55632;51.962;16.116;2022-08-19T02:50:38;15.18;;;11.15;;
68647;SDS011;55632;51.962;16.116;2022-08-19T02:55:44;15.77;;;11.52;;
68647;SDS011;55632;51.962;16.116;2022-08-19T03:00:49;13.48;;;11.80;;
68647;SDS011;55632;51.962;16.116;2022-08-19T03:06:13;15.45;;;12.50;;
68647;SDS011;55632;51.962;16.116;2022-08-19T03:11:23;13.40;;;11.80;;
68647;SDS011;55632;51.962;16.116;2022-08-19T03:16:32;18.58;;;12.07;;
68647;SDS011;55632;51.962;16.116;2022-08-19T03:21:35;17.35;;;11.60;;
68647;SDS011;55632;51.962;16.116;2022-08-19T03:26:40;18.30;;;9.80;;
68647;SDS011;55632;51.962;16.116;2022-08-19T03:31:43;16.00;;;11.93;;
68647;SDS011;55632;51.962;16.116;2022-08-19T03:36:45;25.83;;;11.65;;
68647;SDS011;55632;51.962;16.116;2022-08-19T03:41:47;12.57;;;11.27;;
68647;SDS011;55632;51.962;16.116;2022-08-19T03:46:52;13.57;;;10.65;;
68647;SDS011;55632;51.962;16.116;2022-08-19T03:51:56;13.45;;;11.68;;
68647;SDS011;55632;51.962;16.116;2022-08-19T03:56:58;20.40;;;11.90;;
68647;SDS011;55632;51.962;16.116;2022-08-19T04:02:00;13.48;;;11.77;;
68647;SDS011;55632;51.962;16.116;2022-08-19T04:07:03;20.80;;;12.00;;
68647;SDS011;55632;51.962;16.116;2022-08-19T04:12:04;16.27;;;12.07;;
68647;SDS011;55632;51.962;16.116;2022-08-19T04:17:05;16.52;;;12.20;;
68647;SDS011;55632;51.962;16.116;2022-08-19T04:22:06;15.32;;;12.23;;
68647;SDS011;55632;51.962;16.116;2022-08-19T04:27:07;18.98;;;12.82;;
68647;SDS011;55632;51.962;16.116;2022-08-19T04:32:08;17.65;;;11.55;;
68647;SDS011;55632;51.962;16.116;2022-08-19T04:37:15;16.45;;;11.20;;
68647;SDS011;55632;51.962;16.116;2022-08-19T04:42:16;14.48;;;10.93;;
68647;SDS011;55632;51.962;16.116;2022-08-19T04:47:37;16.73;;;11.07;;
68647;SDS011;55632;51.962;16.116;2022-08-19T04:52:39;15.73;;;10.88;;
68647;SDS011;55632;51.962;16.116;2022-08-19T04:57:43;15.75;;;10.77;;
68647;SDS011;55632;51.962;16.116;2022-08-19T05:02:44;21.10;;;11.02;;
68647;SDS011;55632;51.962;16.116;2022-08-19T05:07:46;11.27;;;10.15;;
68647;SDS011;55632;51.962;16.116;2022-08-19T05:12:47;15.45;;;10.52;;
68647;SDS011;55632;51.962;16.116;2022-08-19T05:17:47;14.52;;;10.95;;
68647;SDS011;55632;51.962;16.116;2022-08-19T05:23:10;16.48;;;10.60;;
68647;SDS011;55632;51.962;16.116;2022-08-19T05:28:11;14.98;;;9.63;;
68647;SDS011;55632;51.962;16.116;2022-08-19T05:33:12;11.63;;;10.43;;
68647;SDS011;55632;51.962;16.116;2022-08-19T05:38:13;19.25;;;10.43;;
68647;SDS011;55632;51.962;16.116;2022-08-19T05:43:17;23.45;;;12.02;;
68647;SDS011;55632;51.962;16.116;2022-08-19T05:48:26;16.27;;;10.98;;
68647;SDS011;55632;51.962;16.116;2022-08-19T05:53:31;16.02;;;11.38;;
68647;SDS011;55632;51.962;16.116;2022-08-19T05:58:32;14.18;;;11.43;;
68647;SDS011;55632;51.962;16.116;2022-08-19T06:03:33;19.70;;;11.75;;
68647;SDS011;55632;51.962;16.116;2022-08-19T06:08:35;14.57;;;11.13;;
68647;SDS011;55632;51.962;16.116;2022-08-19T06:13:39;12.15;;;10.82;;
68647;SDS011;55632;51.962;16.116;2022-08-19T06:18:40;16.33;;;11.05;;
68647;SDS011;55632;51.962;16.116;2022-08-19T06:23:41;15.38;;;10.32;;
68647;SDS011;55632;51.962;16.116;2022-08-19T06:28:42;13.48;;;10.55;;
68647;SDS011;55632;51.962;16.116;2022-08-19T06:33:47;14.05;;;10.52;;
68647;SDS011;55632;51.962;16.116;2022-08-19T06:38:49;16.50;;;10.55;;
68647;SDS011;55632;51.962;16.116;2022-08-19T06:43:50;14.07;;;10.40;;
68647;SDS011;55632;51.962;16.116;2022-08-19T06:48:51;13.80;;;9.68;;
68647;SDS011;55632;51.962;16.116;2022-08-19T06:53:58;13.10;;;10.10;;
68647;SDS011;55632;51.962;16.116;2022-08-19T06:59:01;11.68;;;10.48;;
68647;SDS011;55632;51.962;16.116;2022-08-19T07:04:13;13.50;;;9.88;;
68647;SDS011;55632;51.962;16.116;2022-08-19T07:09:16;12.02;;;9.13;;
68647;SDS011;55632;51.962;16.116;2022-08-19T07:14:22;13.20;;;9.95;;
68647;SDS011;55632;51.962;16.116;2022-08-19T07:19:25;12.38;;;8.63;;
68647;SDS011;55632;51.962;16.116;2022-08-19T07:24:27;12.88;;;9.15;;
68647;SDS011;55632;51.962;16.116;2022-08-19T07:29:29;10.70;;;8.82;;
68647;SDS011;55632;51.962;16.116;2022-08-19T07:34:33;11.95;;;10.15;;
68647;SDS011;55632;51.962;16.116;2022-08-19T07:39:37;18.80;;;10.30;;
68647;SDS011;55632;51.962;16.116;2022-08-19T07:44:39;12.80;;;9.80;;
68647;SDS011;55632;51.962;16.116;2022-08-19T07:49:43;12.30;;;9.27;;
68647;SDS011;55632;51.962;16.116;2022-08-19T07:54:43;12.15;;;8.68;;
68647;SDS011;55632;51.962;16.116;2022-08-19T07:59:44;8.52;;;7.35;;
68647;SDS011;55632;51.962;16.116;2022-08-19T08:04:48;10.95;;;7.63;;
68647;SDS011;55632;51.962;16.116;2022-08-19T08:10:10;12.75;;;9.00;;
68647;SDS011;55632;51.962;16.116;2022-08-19T08:15:15;14.57;;;8.50;;
68647;SDS011;55632;51.962;16.116;2022-08-19T08:20:16;13.93;;;7.95;;
68647;SDS011;55632;51.962;16.116;2022-08-19T08:25:22;7.70;;;6.72;;
68647;SDS011;55632;51.962;16.116;2022-08-19T08:30:24;7.72;;;6.53;;
68647;SDS011;55632;51.962;16.116;2022-08-19T08:35:25;11.32;;;6.40;;
68647;SDS011;55632;51.962;16.116;2022-08-19T08:45:38;8.43;;;5.35;;
68647;SDS011;55632;51.962;16.116;2022-08-19T08:50:46;11.07;;;6.82;;
68647;SDS011;55632;51.962;16.116;2022-08-19T08:55:52;8.68;;;6.47;;
68647;SDS011;55632;51.962;16.116;2022-08-19T09:00:53;7.05;;;6.03;;
68647;SDS011;55632;51.962;16.116;2022-08-19T09:06:06;10.20;;;7.18;;
68647;SDS011;55632;51.962;16.116;2022-08-19T09:11:30;12.85;;;8.15;;
68647;SDS011;55632;51.962;16.116;2022-08-19T09:16:45;14.60;;;9.07;;
68647;SDS011;55632;51.962;16.116;2022-08-19T09:21:46;10.27;;;8.77;;
68647;SDS011;55632;51.962;16.116;2022-08-19T09:26:48;11.07;;;9.25;;
68647;SDS011;55632;51.962;16.116;2022-08-19T09:31:49;16.85;;;9.65;;
68647;SDS011;55632;51.962;16.116;2022-08-19T09:36:50;17.98;;;11.48;;
68647;SDS011;55632;51.962;16.116;2022-08-19T09:41:55;13.10;;;11.43;;
68647;SDS011;55632;51.962;16.116;2022-08-19T09:46:57;15.15;;;12.30;;
68647;SDS011;55632;51.962;16.116;2022-08-19T09:51:57;17.73;;;14.50;;
68647;SDS011;55632;51.962;16.116;2022-08-19T09:56:58;15.18;;;13.60;;
68647;SDS011;55632;51.962;16.116;2022-08-19T10:02:03;22.90;;;13.60;;
68647;SDS011;55632;51.962;16.116;2022-08-19T10:07:04;13.40;;;11.95;;
68647;SDS011;55632;51.962;16.116;2022-08-19T10:12:05;15.07;;;12.10;;
68647;SDS011;55632;51.962;16.116;2022-08-19T10:17:06;15.45;;;11.82;;
68647;SDS011;55632;51.962;16.116;2022-08-19T10:22:07;16.95;;;10.98;;
68647;SDS011;55632;51.962;16.116;2022-08-19T10:27:08;16.58;;;13.40;;
68647;SDS011;55632;51.962;16.116;2022-08-19T10:32:10;14.57;;;12.48;;
68647;SDS011;55632;51.962;16.116;2022-08-19T10:37:11;14.65;;;13.02;;
68647;SDS011;55632;51.962;16.116;2022-08-19T10:42:11;14.57;;;12.32;;
68647;SDS011;55632;51.962;16.116;2022-08-19T10:47:13;13.18;;;11.88;;
68647;SDS011;55632;51.962;16.116;2022-08-19T10:52:15;14.00;;;12.60;;
68647;SDS011;55632;51.962;16.116;2022-08-19T10:57:34;14.60;;;12.82;;
68647;SDS011;55632;51.962;16.116;2022-08-19T11:02:37;13.95;;;12.23;;
68647;SDS011;55632;51.962;16.116;2022-08-19T11:07:38;15.45;;;11.90;;
68647;SDS011;55632;51.962;16.116;2022-08-19T11:12:40;13.68;;;12.20;;
68647;SDS011;55632;51.962;16.116;2022-08-19T11:17:41;26.65;;;12.50;;
68647;SDS011;55632;51.962;16.116;2022-08-19T11:22:43;13.85;;;12.40;;
68647;SDS011;55632;51.962;16.116;2022-08-19T11:27:44;15.05;;;12.27;;
68647;SDS011;55632;51.962;16.116;2022-08-19T11:32:46;18.17;;;12.27;;
68647;SDS011;55632;51.962;16.116;2022-08-19T11:37:48;13.65;;;12.18;;
68647;SDS011;55632;51.962;16.116;2022-08-19T11:42:48;16.77;;;12.32;;
68647;SDS011;55632;51.962;16.116;2022-08-19T11:47:56;33.40;;;13.57;;
68647;SDS011;55632;51.962;16.116;2022-08-19T11:53:00;12.38;;;11.18;;
68647;SDS011;55632;51.962;16.116;2022-08-19T11:58:05;15.48;;;10.98;;
68647;SDS011;55632;51.962;16.116;2022-08-19T12:03:11;11.98;;;10.70;;
68647;SDS011;55632;51.962;16.116;2022-08-19T12:08:26;11.48;;;10.27;;
68647;SDS011;55632;51.962;16.116;2022-08-19T12:13:27;14.13;;;9.55;;
68647;SDS011;55632;51.962;16.116;2022-08-19T12:18:32;12.63;;;9.25;;
68647;SDS011;55632;51.962;16.116;2022-08-19T12:23:33;9.50;;;8.50;;
68647;SDS011;55632;51.962;16.116;2022-08-19T12:28:40;16.27;;;8.90;;
68647;SDS011;55632;51.962;16.116;2022-08-19T12:33:45;11.48;;;8.60;;
68647;SDS011;55632;51.962;16.116;2022-08-19T12:38:47;9.55;;;7.57;;
68647;SDS011;55632;51.962;16.116;2022-08-19T12:43:50;9.40;;;7.75;;
68647;SDS011;55632;51.962;16.116;2022-08-19T12:48:51;11.65;;;7.38;;
68647;SDS011;55632;51.962;16.116;2022-08-19T12:53:53;14.23;;;7.57;;
68647;SDS011;55632;51.962;16.116;2022-08-19T12:58:54;8.20;;;7.32;;
68647;SDS011;55632;51.962;16.116;2022-08-19T13:03:54;11.30;;;7.50;;
68647;SDS011;55632;51.962;16.116;2022-08-19T13:08:55;9.27;;;8.38;;
68647;SDS011;55632;51.962;16.116;2022-08-19T13:13:57;12.38;;;8.70;;
68647;SDS011;55632;51.962;16.116;2022-08-19T13:18:58;18.15;;;9.93;;
68647;SDS011;55632;51.962;16.116;2022-08-19T13:24:02;13.18;;;9.98;;
68647;SDS011;55632;51.962;16.116;2022-08-19T13:29:03;12.25;;;11.02;;
68647;SDS011;55632;51.962;16.116;2022-08-19T13:34:33;12.65;;;11.20;;
68647;SDS011;55632;51.962;16.116;2022-08-19T13:39:35;13.73;;;11.27;;
68647;SDS011;55632;51.962;16.116;2022-08-19T13:44:36;14.10;;;12.23;;
68647;SDS011;55632;51.962;16.116;2022-08-19T13:49:37;17.40;;;12.55;;
68647;SDS011;55632;51.962;16.116;2022-08-19T13:54:38;16.25;;;13.65;;
68647;SDS011;55632;51.962;16.116;2022-08-19T13:59:45;14.95;;;13.45;;
68647;SDS011;55632;51.962;16.116;2022-08-19T14:04:46;16.48;;;14.35;;
68647;SDS011;55632;51.962;16.116;2022-08-19T14:09:46;19.65;;;15.45;;
68647;SDS011;55632;51.962;16.116;2022-08-19T14:14:48;17.00;;;15.30;;
68647;SDS011;55632;51.962;16.116;2022-08-19T14:19:49;20.23;;;15.55;;
68647;SDS011;55632;51.962;16.116;2022-08-19T14:25:04;19.10;;;15.25;;
68647;SDS011;55632;51.962;16.116;2022-08-19T14:30:08;19.17;;;17.02;;
68647;SDS011;55632;51.962;16.116;2022-08-19T14:35:13;21.52;;;17.75;;
68647;SDS011;55632;51.962;16.116;2022-08-19T14:40:18;21.98;;;18.23;;
68647;SDS011;55632;51.962;16.116;2022-08-19T14:45:22;17.23;;;15.30;;
68647;SDS011;55632;51.962;16.116;2022-08-19T14:50:23;19.63;;;17.08;;
68647;SDS011;55632;51.962;16.116;2022-08-19T14:55:24;19.08;;;17.13;;
68647;SDS011;55632;51.962;16.116;2022-08-19T15:00:26;20.55;;;18.48;;
68647;SDS011;55632;51.962;16.116;2022-08-19T15:05:27;20.80;;;17.58;;
68647;SDS011;55632;51.962;16.116;2022-08-19T15:10:29;19.65;;;17.60;;
68647;SDS011;55632;51.962;16.116;2022-08-19T15:15:36;20.23;;;18.17;;
68647;SDS011;55632;51.962;16.116;2022-08-19T15:20:39;23.02;;;18.02;;
68647;SDS011;55632;51.962;16.116;2022-08-19T15:25:40;19.67;;;17.65;;
68647;SDS011;55632;51.962;16.116;2022-08-19T15:30:44;17.92;;;16.13;;
68647;SDS011;55632;51.962;16.116;2022-08-19T15:35:46;18.77;;;16.75;;
68647;SDS011;55632;51.962;16.116;2022-08-19T15:40:54;21.23;;;16.45;;
68647;SDS011;55632;51.962;16.116;2022-08-19T15:46:19;18.27;;;15.23;;
68647;SDS011;55632;51.962;16.116;2022-08-19T15:51:22;17.02;;;15.27;;
68647;SDS011;55632;51.962;16.116;2022-08-19T15:56:23;23.35;;;15.07;;
68647;SDS011;55632;51.962;16.116;2022-08-19T16:01:24;20.40;;;15.40;;
68647;SDS011;55632;51.962;16.116;2022-08-19T16:06:55;17.88;;;15.65;;
68647;SDS011;55632;51.962;16.116;2022-08-19T16:12:00;16.90;;;15.13;;
68647;SDS011;55632;51.962;16.116;2022-08-19T16:17:02;18.13;;;16.27;;
68647;SDS011;55632;51.962;16.116;2022-08-19T16:22:07;27.58;;;24.60;;
68647;SDS011;55632;51.962;16.116;2022-08-19T16:27:09;28.77;;;19.52;;
68647;SDS011;55632;51.962;16.116;2022-08-19T16:32:10;21.90;;;17.15;;
68647;SDS011;55632;51.962;16.116;2022-08-19T16:37:11;20.50;;;17.05;;
68647;SDS011;55632;51.962;16.116;2022-08-19T16:42:13;22.35;;;15.82;;
68647;SDS011;55632;51.962;16.116;2022-08-19T16:47:14;18.35;;;15.05;;
68647;SDS011;55632;51.962;16.116;2022-08-19T16:52:17;17.13;;;15.25;;
68647;SDS011;55632;51.962;16.116;2022-08-19T16:57:19;16.58;;;14.25;;
68647;SDS011;55632;51.962;16.116;2022-08-19T17:02:22;15.90;;;14.32;;
68647;SDS011;55632;51.962;16.116;2022-08-19T17:07:23;15.43;;;13.77;;
68647;SDS011;55632;51.962;16.116;2022-08-19T17:12:24;17.63;;;14.57;;
68647;SDS011;55632;51.962;16.116;2022-08-19T17:17:25;16.67;;;14.27;;
68647;SDS011;55632;51.962;16.116;2022-08-19T17:22:27;16.95;;;13.68;;
68647;SDS011;55632;51.962;16.116;2022-08-19T17:27:28;26.50;;;14.48;;
68647;SDS011;55632;51.962;16.116;2022-08-19T17:32:30;20.88;;;15.77;;
68647;SDS011;55632;51.962;16.116;2022-08-19T17:37:34;27.60;;;24.45;;
68647;SDS011;55632;51.962;16.116;2022-08-19T17:42:36;24.80;;;17.38;;
68647;SDS011;55632;51.962;16.116;2022-08-19T17:47:40;19.98;;;15.77;;
68647;SDS011;55632;51.962;16.116;2022-08-19T17:52:46;104.68;;;61.15;;
68647;SDS011;55632;51.962;16.116;2022-08-19T17:57:54;31.70;;;20.73;;
68647;SDS011;55632;51.962;16.116;2022-08-19T18:02:56;17.50;;;14.95;;
68647;SDS011;55632;51.962;16.116;2022-08-19T18:08:02;31.95;;;19.25;;
68647;SDS011;55632;51.962;16.116;2022-08-19T18:13:03;26.48;;;19.50;;
68647;SDS011;55632;51.962;16.116;2022-08-19T18:18:05;25.23;;;18.42;;
68647;SDS011;55632;51.962;16.116;2022-08-19T18:23:10;31.02;;;19.83;;
68647;SDS011;55632;51.962;16.116;2022-08-19T18:28:14;30.50;;;20.50;;
68647;SDS011;55632;51.962;16.116;2022-08-19T18:33:15;23.70;;;20.25;;
68647;SDS011;55632;51.962;16.116;2022-08-19T18:38:16;23.05;;;18.35;;
68647;SDS011;55632;51.962;16.116;2022-08-19T18:43:37;21.00;;;19.00;;
68647;SDS011;55632;51.962;16.116;2022-08-19T18:48:57;21.80;;;19.50;;
68647;SDS011;55632;51.962;16.116;2022-08-19T18:54:04;22.40;;;19.27;;
68647;SDS011;55632;51.962;16.116;2022-08-19T18:59:05;22.65;;;18.65;;
68647;SDS011;55632;51.962;16.116;2022-08-19T19:04:06;20.85;;;18.10;;
68647;SDS011;55632;51.962;16.116;2022-08-19T19:09:11;25.60;;;18.08;;
68647;SDS011;55632;51.962;16.116;2022-08-19T19:14:21;21.20;;;18.42;;
68647;SDS011;55632;51.962;16.116;2022-08-19T19:19:31;21.25;;;18.50;;
68647;SDS011;55632;51.962;16.116;2022-08-19T19:24:33;18.73;;;16.92;;
68647;SDS011;55632;51.962;16.116;2022-08-19T19:29:39;19.55;;;17.50;;
68647;SDS011;55632;51.962;16.116;2022-08-19T19:34:42;19.92;;;17.88;;
68647;SDS011;55632;51.962;16.116;2022-08-19T19:39:45;18.65;;;16.75;;
68647;SDS011;55632;51.962;16.116;2022-08-19T19:44:48;25.25;;;17.60;;
68647;SDS011;55632;51.962;16.116;2022-08-19T19:49:50;19.67;;;17.60;;
68647;SDS011;55632;51.962;16.116;2022-08-19T19:54:51;19.63;;;17.63;;
68647;SDS011;55632;51.962;16.116;2022-08-19T19:59:56;19.30;;;17.35;;
68647;SDS011;55632;51.962;16.116;2022-08-19T20:04:57;18.85;;;16.75;;
68647;SDS011;55632;51.962;16.116;2022-08-19T20:09:58;21.20;;;16.20;;
68647;SDS011;55632;51.962;16.116;2022-08-19T20:14:59;18.98;;;17.27;;
68647;SDS011;55632;51.962;16.116;2022-08-19T20:20:00;17.75;;;16.02;;
68647;SDS011;55632;51.962;16.116;2022-08-19T20:25:01;17.35;;;15.48;;
68647;SDS011;55632;51.962;16.116;2022-08-19T20:30:03;18.30;;;16.42;;
68647;SDS011;55632;51.962;16.116;2022-08-19T20:35:05;17.27;;;15.52;;
68647;SDS011;55632;51.962;16.116;2022-08-19T20:40:09;17.70;;;15.52;;
68647;SDS011;55632;51.962;16.116;2022-08-19T20:45:17;16.55;;;14.77;;
68647;SDS011;55632;51.962;16.116;2022-08-19T20:50:20;18.67;;;16.77;;
68647;SDS011;55632;51.962;16.116;2022-08-19T20:55:22;20.27;;;16.50;;
68647;SDS011;55632;51.962;16.116;2022-08-19T21:00:28;18.50;;;16.70;;
68647;SDS011;55632;51.962;16.116;2022-08-19T21:05:33;20.90;;;18.55;;
68647;SDS011;55632;51.962;16.116;2022-08-19T21:10:33;18.85;;;16.25;;
68647;SDS011;55632;51.962;16.116;2022-08-19T21:15:38;18.95;;;17.00;;
68647;SDS011;55632;51.962;16.116;2022-08-19T21:20:43;20.75;;;18.30;;
68647;SDS011;55632;51.962;16.116;2022-08-19T21:25:45;20.83;;;17.80;;
68647;SDS011;55632;51.962;16.116;2022-08-19T21:30:48;22.02;;;19.75;;
68647;SDS011;55632;51.962;16.116;2022-08-19T21:35:55;19.48;;;17.48;;
68647;SDS011;55632;51.962;16.116;2022-08-19T21:41:02;28.42;;;21.23;;
68647;SDS011;55632;51.962;16.116;2022-08-19T21:46:06;22.13;;;19.73;;
68647;SDS011;55632;51.962;16.116;2022-08-19T21:51:08;22.45;;;20.05;;
68647;SDS011;55632;51.962;16.116;2022-08-19T21:56:09;21.23;;;19.02;;
68647;SDS011;55632;51.962;16.116;2022-08-19T22:01:12;24.33;;;19.73;;
68647;SDS011;55632;51.962;16.116;2022-08-19T22:06:12;23.05;;;19.90;;
68647;SDS011;55632;51.962;16.116;2022-08-19T22:11:18;25.30;;;21.35;;
68647;SDS011;55632;51.962;16.116;2022-08-19T22:16:21;22.50;;;20.30;;
68647;SDS011;55632;51.962;16.116;2022-08-19T22:21:26;23.63;;;20.60;;
68647;SDS011;55632;51.962;16.116;2022-08-19T22:26:29;26.45;;;21.20;;
68647;SDS011;55632;51.962;16.116;2022-08-19T22:31:31;24.25;;;21.65;;
68647;SDS011;55632;51.962;16.116;2022-08-19T22:36:41;23.92;;;21.23;;
68647;SDS011;55632;51.962;16.116;2022-08-19T22:41:42;23.95;;;21.30;;
68647;SDS011;55632;51.962;16.116;2022-08-19T22:46:43;26.05;;;20.15;;
68647;SDS011;55632;51.962;16.116;2022-08-19T22:51:46;24.27;;;21.67;;
68647;SDS011;55632;51.962;16.116;2022-08-19T22:57:06;22.13;;;19.38;;
68647;SDS011;55632;51.962;16.116;2022-08-19T23:02:07;21.35;;;18.27;;
68647;SDS011;55632;51.962;16.116;2022-08-19T23:07:18;24.38;;;21.77;;
68647;SDS011;55632;51.962;16.116;2022-08-19T23:12:31;22.27;;;18.70;;
68647;SDS011;55632;51.962;16.116;2022-08-19T23:17:42;22.53;;;19.80;;
68647;SDS011;55632;51.962;16.116;2022-08-19T23:22:44;23.73;;;21.23;;
68647;SDS011;55632;51.962;16.116;2022-08-19T23:27:50;28.15;;;21.58;;
68647;SDS011;55632;51.962;16.116;2022-08-19T23:33:14;22.25;;;19.90;;
68647;SDS011;55632;51.962;16.116;2022-08-19T23:38:28;19.35;;;17.27;;
68647;SDS011;55632;51.962;16.116;2022-08-19T23:43:33;21.35;;;18.75;;
68647;SDS011;55632;51.962;16.116;2022-08-19T23:48:34;22.65;;;19.35;;
68647;SDS011;55632;51.962;16.116;2022-08-19T23:53:37;25.15;;;19.92;;
68647;SDS011;55632;51.962;16.116;2022-08-19T23:58:38;22.33;;;19.75;;
